createdAt,value
2022-10-17T00:00:13.452Z,17.03
2022-10-17T00:02:40.063Z,17.09
2022-10-17T00:05:06.690Z,16.94
2022-10-17T00:07:33.303Z,16.78
2022-10-17T00:09:59.888Z,16.71
2022-10-17T00:12:26.522Z,16.79
2022-10-17T00:14:53.139Z,16.92
2022-10-17T00:17:19.731Z,16.94
2022-10-17T00:19:46.371Z,16.75
2022-10-17T00:22:13.019Z,16.68
2022-10-17T00:24:39.650Z,16.71
2022-10-17T00:27:06.282Z,16.79
2022-10-17T00:29:32.863Z,16.83
2022-10-17T00:31:59.500Z,16.85
2022-10-17T00:34:26.114Z,16.87
2022-10-17T00:36:52.707Z,16.85
2022-10-17T00:39:19.375Z,16.79
2022-10-17T00:41:45.988Z,16.77
2022-10-17T00:44:12.604Z,16.75
2022-10-17T00:46:39.263Z,16.84
2022-10-17T00:49:05.852Z,16.84
2022-10-17T00:51:32.476Z,16.66
2022-10-17T00:53:59.077Z,16.62
2022-10-17T00:56:25.689Z,16.70
2022-10-17T00:58:52.410Z,16.72
2022-10-17T01:01:19.090Z,16.80
2022-10-17T01:03:45.758Z,16.64
2022-10-17T01:06:12.377Z,16.77
2022-10-17T01:08:39.023Z,16.78
2022-10-17T01:11:05.625Z,16.71
2022-10-17T01:13:32.242Z,16.70
2022-10-17T01:15:58.840Z,16.69
2022-10-17T01:18:25.495Z,16.63
2022-10-17T01:20:52.083Z,16.69
2022-10-17T01:23:18.691Z,16.56
2022-10-17T01:25:45.313Z,16.45
2022-10-17T01:28:11.922Z,16.49
2022-10-17T01:30:38.526Z,16.47
2022-10-17T01:33:05.183Z,16.48
2022-10-17T01:35:31.804Z,16.32
2022-10-17T01:37:58.429Z,16.17
2022-10-17T01:40:25.025Z,16.34
2022-10-17T01:42:51.666Z,16.19
2022-10-17T01:45:18.253Z,16.28
2022-10-17T01:47:44.875Z,16.18
2022-10-17T01:50:11.467Z,16.13
2022-10-17T01:52:38.152Z,16.12
2022-10-17T01:55:04.768Z,16.17
2022-10-17T01:57:31.568Z,16.22
2022-10-17T01:59:58.370Z,15.96
2022-10-17T02:02:24.976Z,15.87
2022-10-17T02:04:51.703Z,15.97
2022-10-17T02:07:18.350Z,16.17
2022-10-17T02:09:44.968Z,16.05
2022-10-17T02:12:11.559Z,15.96
2022-10-17T02:14:38.163Z,16.18
2022-10-17T02:17:04.771Z,16.10
2022-10-17T02:19:31.364Z,16.09
2022-10-17T02:21:57.984Z,16.11
2022-10-17T02:24:24.584Z,16.03
2022-10-17T02:26:51.200Z,16.13
2022-10-17T02:29:17.838Z,16.16
2022-10-17T02:31:44.698Z,16.10
2022-10-17T02:34:11.314Z,15.96
2022-10-17T02:36:37.923Z,15.99
2022-10-17T02:39:04.538Z,15.97
2022-10-17T02:41:31.154Z,15.86
2022-10-17T02:44:00.159Z,15.87
2022-10-17T02:46:28.960Z,15.62
2022-10-17T02:48:55.547Z,15.78
2022-10-17T02:51:22.158Z,15.77
2022-10-17T02:53:57.774Z,15.76
2022-10-17T02:56:24.415Z,15.75
2022-10-17T02:58:51.075Z,15.72
2022-10-17T03:01:17.723Z,15.80
2022-10-17T03:03:44.401Z,15.80
2022-10-17T03:06:11.011Z,15.63
2022-10-17T03:11:05.135Z,15.76
2022-10-17T03:13:33.031Z,15.76
2022-10-17T03:16:01.658Z,15.82
2022-10-17T03:18:28.253Z,15.71
2022-10-17T03:20:54.884Z,15.75
2022-10-17T03:23:21.473Z,15.67
2022-10-17T03:25:48.149Z,15.68
2022-10-17T03:30:58.758Z,15.58
2022-10-17T03:33:25.338Z,15.54
2022-10-17T03:35:52.013Z,15.55
2022-10-17T03:38:18.650Z,15.54
2022-10-17T03:40:45.264Z,15.39
2022-10-17T03:43:11.891Z,15.49
2022-10-17T03:45:38.492Z,15.37
2022-10-17T03:48:05.100Z,15.40
2022-10-17T03:50:31.697Z,15.44
2022-10-17T03:52:58.294Z,15.53
2022-10-17T03:55:24.923Z,15.60
2022-10-17T03:57:51.542Z,15.30
2022-10-17T04:00:18.155Z,15.42
2022-10-17T04:02:44.762Z,15.32
2022-10-17T04:05:11.384Z,15.40
2022-10-17T04:07:38.026Z,15.47
2022-10-17T04:10:04.792Z,15.38
2022-10-17T04:12:31.792Z,15.44
2022-10-17T04:14:58.613Z,15.38
2022-10-17T04:17:25.202Z,15.23
2022-10-17T04:19:51.844Z,15.38
2022-10-17T04:22:18.442Z,15.45
2022-10-17T04:24:45.081Z,15.39
2022-10-17T04:27:11.689Z,15.29
2022-10-17T04:29:38.310Z,15.28
2022-10-17T04:32:04.899Z,15.42
2022-10-17T04:34:31.506Z,15.39
2022-10-17T04:36:58.107Z,15.36
2022-10-17T04:39:24.732Z,15.37
2022-10-17T04:41:51.339Z,15.41
2022-10-17T04:44:17.970Z,15.32
2022-10-17T04:46:44.584Z,15.46
2022-10-17T04:49:11.176Z,15.44
2022-10-17T04:51:37.816Z,15.42
2022-10-17T04:54:04.402Z,15.43
2022-10-17T04:56:31.015Z,15.42
2022-10-17T04:58:57.628Z,15.57
2022-10-17T05:01:24.307Z,15.45
2022-10-17T05:03:50.936Z,15.44
2022-10-17T05:06:17.584Z,15.56
2022-10-17T05:08:44.180Z,15.51
2022-10-17T05:11:10.801Z,15.54
2022-10-17T05:13:37.439Z,15.47
2022-10-17T05:16:04.079Z,15.51
2022-10-17T05:18:30.698Z,15.56
2022-10-17T05:20:57.343Z,15.45
2022-10-17T05:23:23.983Z,15.45
2022-10-17T05:25:50.593Z,15.36
2022-10-17T05:28:17.214Z,15.43
2022-10-17T05:30:43.827Z,15.55
2022-10-17T05:33:10.453Z,15.57
2022-10-17T05:35:37.099Z,15.54
2022-10-17T05:38:03.706Z,15.32
2022-10-17T05:40:30.326Z,15.28
2022-10-17T05:42:56.940Z,15.52
2022-10-17T05:45:23.530Z,15.59
2022-10-17T05:47:50.186Z,15.52
2022-10-17T05:50:16.795Z,15.58
2022-10-17T05:52:45.194Z,15.58
2022-10-17T05:55:13.821Z,15.72
2022-10-17T05:57:40.418Z,15.70
2022-10-17T06:00:07.006Z,15.58
2022-10-17T06:02:33.796Z,15.81
2022-10-17T06:05:00.735Z,15.85
2022-10-17T06:07:27.365Z,15.57
2022-10-17T06:09:53.956Z,15.57
2022-10-17T06:12:20.580Z,15.48
2022-10-17T06:14:47.179Z,15.61
2022-10-17T06:17:16.277Z,15.90
2022-10-17T06:19:43.113Z,16.07
2022-10-17T06:22:09.729Z,16.15
2022-10-17T06:24:36.346Z,16.25
2022-10-17T06:27:03.757Z,16.22
2022-10-17T06:29:32.428Z,16.39
2022-10-17T06:31:59.054Z,16.29
2022-10-17T06:34:25.672Z,16.39
2022-10-17T06:36:52.355Z,16.44
2022-10-17T06:39:19.013Z,16.58
2022-10-17T06:41:45.635Z,16.63
2022-10-17T06:44:12.234Z,16.73
2022-10-17T06:46:38.823Z,16.94
2022-10-17T06:49:05.484Z,17.09
2022-10-17T06:51:32.071Z,17.20
2022-10-17T06:53:58.716Z,17.32
2022-10-17T06:56:25.311Z,17.43
2022-10-17T06:58:51.906Z,17.62
2022-10-17T07:01:18.555Z,17.77
2022-10-17T07:03:45.192Z,17.83
2022-10-17T07:06:11.787Z,17.82
2022-10-17T07:08:38.415Z,17.95
2022-10-17T07:11:05.043Z,18.08
2022-10-17T07:13:34.485Z,18.29
2022-10-17T07:16:04.814Z,18.30
2022-10-17T07:18:31.433Z,18.48
2022-10-17T07:20:58.028Z,18.59
2022-10-17T07:23:24.616Z,18.68
2022-10-17T07:25:51.234Z,19.06
2022-10-17T07:28:17.832Z,18.97
2022-10-17T07:30:44.452Z,19.04
2022-10-17T07:33:11.066Z,19.19
2022-10-17T07:35:37.687Z,19.19
2022-10-17T07:38:04.330Z,19.04
2022-10-17T07:40:31.049Z,19.17
2022-10-17T07:42:57.655Z,19.35
2022-10-17T07:45:24.281Z,19.52
2022-10-17T07:47:50.931Z,19.50
2022-10-17T07:50:17.522Z,19.77
2022-10-17T07:52:44.148Z,19.80
2022-10-17T07:55:10.769Z,19.80
2022-10-17T08:00:21.329Z,20.00
2022-10-17T08:02:47.921Z,20.29
2022-10-17T08:05:14.559Z,20.31
2022-10-17T08:07:41.148Z,20.43
2022-10-17T08:12:39.254Z,20.71
2022-10-17T08:15:05.867Z,20.88
2022-10-17T08:17:32.482Z,20.99
2022-10-17T08:19:59.080Z,21.15
2022-10-17T08:22:25.691Z,21.25
2022-10-17T08:24:52.312Z,21.30
2022-10-17T08:27:18.939Z,21.22
2022-10-17T08:29:45.597Z,21.50
2022-10-17T08:32:12.186Z,21.61
2022-10-17T08:34:38.795Z,21.43
2022-10-17T08:37:05.450Z,21.73
2022-10-17T08:39:32.073Z,22.00
2022-10-17T08:41:58.870Z,22.20
2022-10-17T08:44:25.489Z,22.08
2022-10-17T08:46:52.088Z,22.22
2022-10-17T08:49:18.705Z,22.17
2022-10-17T08:51:45.299Z,22.42
2022-10-17T08:54:11.891Z,22.63
2022-10-17T08:56:47.924Z,22.88
2022-10-17T08:59:15.309Z,23.05
2022-10-17T09:01:41.935Z,23.11
2022-10-17T09:04:08.527Z,23.23
2022-10-17T09:06:35.245Z,23.27
2022-10-17T09:09:01.927Z,23.39
2022-10-17T09:11:28.520Z,23.49
2022-10-17T09:13:55.155Z,23.35
2022-10-17T09:16:21.752Z,23.26
2022-10-17T09:18:48.407Z,22.91
2022-10-17T09:21:15.008Z,23.02
2022-10-17T09:23:42.510Z,23.50
2022-10-17T09:26:09.328Z,23.68
2022-10-17T09:28:35.962Z,24.09
2022-10-17T09:31:02.812Z,24.33
2022-10-17T09:33:35.415Z,24.29
2022-10-17T09:36:09.100Z,24.38
2022-10-17T09:38:35.686Z,24.58
2022-10-17T09:41:02.347Z,24.77
2022-10-17T09:43:29.035Z,24.73
2022-10-17T09:45:55.628Z,24.77
2022-10-17T09:48:22.258Z,24.11
2022-10-17T09:50:57.831Z,23.84
2022-10-17T09:53:35.022Z,23.80
2022-10-17T09:56:01.625Z,24.36
2022-10-17T09:58:28.244Z,24.79
2022-10-17T10:00:54.866Z,24.44
2022-10-17T10:03:21.528Z,24.47
2022-10-17T10:05:48.141Z,24.78
2022-10-17T10:08:14.783Z,24.78
2022-10-17T10:10:41.402Z,25.22
2022-10-17T10:13:08.891Z,25.43
2022-10-17T10:15:35.537Z,25.41
2022-10-17T10:18:02.124Z,25.62
2022-10-17T10:20:28.746Z,25.30
2022-10-17T10:22:58.178Z,25.09
2022-10-17T10:25:24.856Z,25.45
2022-10-17T10:27:51.448Z,25.58
2022-10-17T10:30:18.087Z,25.77
2022-10-17T10:32:44.670Z,25.79
2022-10-17T10:35:11.291Z,25.27
2022-10-17T10:37:37.905Z,25.79
2022-10-17T10:40:04.516Z,25.99
2022-10-17T10:42:31.115Z,25.68
2022-10-17T10:44:57.747Z,25.25
2022-10-17T10:47:24.335Z,25.91
2022-10-17T10:49:50.970Z,25.19
2022-10-17T10:52:17.629Z,25.64
2022-10-17T10:54:44.227Z,26.20
2022-10-17T10:57:10.843Z,26.16
2022-10-17T10:59:37.506Z,26.36
2022-10-17T11:02:04.087Z,26.53
2022-10-17T11:04:30.724Z,26.46
2022-10-17T11:06:57.495Z,26.53
2022-10-17T11:09:24.121Z,26.75
2022-10-17T11:11:51.398Z,26.50
2022-10-17T11:14:18.569Z,26.49
2022-10-17T11:16:45.307Z,26.80
2022-10-17T11:19:12.018Z,26.58
2022-10-17T11:21:38.726Z,26.87
2022-10-17T11:24:06.920Z,26.45
2022-10-17T11:26:35.088Z,26.76
2022-10-17T11:29:01.817Z,26.29
2022-10-17T11:31:28.664Z,26.85
2022-10-17T11:33:55.368Z,27.07
2022-10-17T11:36:22.013Z,27.10
2022-10-17T11:38:48.728Z,27.33
2022-10-17T11:41:15.476Z,27.29
2022-10-17T11:43:42.131Z,27.86
2022-10-17T11:46:08.913Z,28.13
2022-10-17T11:48:35.591Z,27.66
2022-10-17T11:53:48.979Z,27.77
2022-10-17T11:56:15.643Z,27.46
2022-10-17T11:58:42.318Z,27.75
2022-10-17T12:01:09.152Z,28.48
2022-10-17T12:03:35.980Z,28.80
2022-10-17T12:06:02.682Z,28.42
2022-10-17T12:08:31.278Z,28.63
2022-10-17T12:10:58.081Z,28.93
2022-10-17T12:13:24.976Z,28.13
2022-10-17T12:15:51.692Z,26.99
2022-10-17T12:18:18.484Z,26.86
2022-10-17T12:20:45.146Z,27.74
2022-10-17T12:23:11.895Z,28.21
2022-10-17T12:25:38.625Z,28.07
2022-10-17T12:30:49.789Z,28.29
2022-10-17T12:33:16.581Z,28.36
2022-10-17T12:35:43.285Z,28.75
2022-10-17T12:38:09.911Z,28.38
2022-10-17T12:40:36.578Z,29.05
2022-10-17T12:43:03.291Z,29.48
2022-10-17T12:45:29.971Z,28.52
2022-10-17T12:47:56.654Z,28.10
2022-10-17T12:50:23.738Z,27.28
2022-10-17T12:55:22.107Z,27.61
2022-10-17T12:57:48.762Z,28.19
2022-10-17T13:00:15.649Z,28.69
2022-10-17T13:02:42.469Z,28.91
2022-10-17T13:05:09.056Z,28.98
2022-10-17T13:07:35.722Z,28.79
2022-10-17T13:10:02.531Z,28.72
2022-10-17T13:12:29.401Z,28.44
2022-10-17T13:14:56.180Z,27.66
2022-10-17T13:17:22.951Z,27.89
2022-10-17T13:19:49.571Z,27.71
2022-10-17T13:22:16.356Z,27.27
2022-10-17T13:24:43.075Z,28.07
2022-10-17T13:27:09.712Z,27.55
2022-10-17T13:29:36.394Z,26.98
2022-10-17T13:32:03.051Z,27.94
2022-10-17T13:34:29.640Z,28.04
2022-10-17T13:36:56.379Z,27.93
2022-10-17T13:39:38.507Z,28.07
2022-10-17T13:42:11.366Z,27.87
2022-10-17T13:44:42.684Z,28.29
2022-10-17T13:47:10.013Z,27.83
2022-10-17T13:49:36.648Z,27.19
2022-10-17T13:52:03.280Z,27.19
2022-10-17T13:54:29.881Z,28.09
2022-10-17T13:56:56.579Z,27.63
2022-10-17T13:59:23.205Z,27.63
2022-10-17T14:01:49.825Z,27.80
2022-10-17T14:04:20.098Z,27.91
2022-10-17T14:06:49.467Z,28.43
2022-10-17T14:09:17.955Z,28.19
2022-10-17T14:11:44.581Z,28.05
2022-10-17T14:14:11.169Z,28.22
2022-10-17T14:16:37.789Z,28.65
2022-10-17T14:19:04.413Z,27.39
2022-10-17T14:21:44.374Z,26.92
2022-10-17T14:24:11.351Z,27.31
2022-10-17T14:26:37.967Z,27.71
2022-10-17T14:29:04.674Z,27.77
2022-10-17T14:31:31.453Z,26.94
2022-10-17T14:33:58.091Z,27.12
2022-10-17T14:36:24.716Z,26.59
2022-10-17T14:38:51.307Z,26.20
2022-10-17T14:44:04.534Z,25.54
2022-10-17T14:46:31.154Z,26.20
2022-10-17T14:48:57.773Z,26.70
2022-10-17T14:51:24.359Z,26.71
2022-10-17T14:53:51.016Z,26.87
2022-10-17T14:56:17.616Z,26.79
2022-10-17T14:58:44.199Z,26.33
2022-10-17T15:01:10.843Z,26.35
2022-10-17T15:03:37.514Z,26.49
2022-10-17T15:06:04.180Z,26.58
2022-10-17T15:08:30.819Z,26.30
2022-10-17T15:10:57.466Z,25.95
2022-10-17T15:13:28.815Z,25.99
2022-10-17T15:15:56.199Z,26.40
2022-10-17T15:18:22.809Z,26.20
2022-10-17T15:20:55.372Z,26.12
2022-10-17T15:23:31.372Z,25.99
2022-10-17T15:25:57.995Z,25.98
2022-10-17T15:28:24.678Z,26.05
2022-10-17T15:30:51.312Z,25.94
2022-10-17T15:33:17.948Z,25.73
2022-10-17T15:35:44.862Z,25.57
2022-10-17T15:38:11.501Z,25.51
2022-10-17T15:40:38.106Z,25.65
2022-10-17T15:43:04.750Z,25.69
2022-10-17T15:45:31.353Z,25.55
2022-10-17T15:47:57.997Z,25.50
2022-10-17T15:50:24.618Z,25.51
2022-10-17T15:52:51.251Z,25.39
2022-10-17T15:55:17.893Z,25.36
2022-10-17T15:57:44.507Z,25.26
2022-10-17T16:00:16.187Z,25.11
2022-10-17T16:02:43.208Z,24.98
2022-10-17T16:05:09.797Z,24.94
2022-10-17T16:07:36.393Z,24.81
2022-10-17T16:10:03.009Z,24.57
2022-10-17T16:12:29.604Z,24.55
2022-10-17T16:14:56.227Z,24.45
2022-10-17T16:17:22.863Z,24.38
2022-10-17T16:19:49.491Z,24.33
2022-10-17T16:22:16.103Z,24.32
2022-10-17T16:24:42.705Z,24.24
2022-10-17T16:27:09.384Z,24.16
2022-10-17T16:29:36.019Z,24.05
2022-10-17T16:32:02.617Z,23.95
2022-10-17T16:34:29.231Z,23.83
2022-10-17T16:36:55.828Z,23.80
2022-10-17T16:39:22.500Z,23.72
2022-10-17T16:41:49.179Z,23.68
2022-10-17T16:44:15.781Z,23.62
2022-10-17T16:46:42.390Z,23.54
2022-10-17T16:49:09.008Z,23.39
2022-10-17T16:51:35.611Z,23.42
2022-10-17T16:54:02.252Z,23.39
2022-10-17T16:56:28.842Z,23.11
2022-10-17T16:58:55.465Z,23.01
2022-10-17T17:01:22.086Z,23.09
2022-10-17T17:03:48.688Z,23.11
2022-10-17T17:06:15.312Z,23.09
2022-10-17T17:08:42.119Z,23.02
2022-10-17T17:11:08.779Z,22.98
2022-10-17T17:13:35.375Z,22.90
2022-10-17T17:16:02.018Z,22.85
2022-10-17T17:18:28.640Z,22.73
2022-10-17T17:20:55.324Z,22.66
2022-10-17T17:23:21.928Z,22.55
2022-10-17T17:25:48.555Z,22.33
2022-10-17T17:28:15.165Z,22.27
2022-10-17T17:30:41.780Z,22.24
2022-10-17T17:33:08.383Z,22.30
2022-10-17T17:35:35.000Z,22.27
2022-10-17T17:38:01.589Z,22.19
2022-10-17T17:40:28.209Z,22.11
2022-10-17T17:42:54.901Z,21.98
2022-10-17T17:45:21.554Z,21.95
2022-10-17T17:47:48.181Z,21.95
2022-10-17T17:50:14.776Z,21.86
2022-10-17T17:52:41.411Z,21.69
2022-10-17T17:55:08.003Z,21.70
2022-10-17T17:57:34.596Z,21.66
2022-10-17T18:00:01.212Z,21.56
2022-10-17T18:02:27.966Z,21.50
2022-10-17T18:04:54.802Z,21.43
2022-10-17T18:07:21.419Z,21.22
2022-10-17T18:09:48.121Z,21.20
2022-10-17T18:12:14.761Z,21.00
2022-10-17T18:14:41.352Z,20.96
2022-10-17T18:17:07.983Z,20.97
2022-10-17T18:19:34.579Z,20.96
2022-10-17T18:22:01.205Z,20.97
2022-10-17T18:24:27.847Z,21.03
2022-10-17T18:26:54.468Z,21.02
2022-10-17T18:29:21.087Z,20.87
2022-10-17T18:31:47.692Z,20.80
2022-10-17T18:34:14.313Z,20.78
2022-10-17T18:36:40.903Z,20.71
2022-10-17T18:39:07.526Z,20.63
2022-10-17T18:41:34.165Z,20.58
2022-10-17T18:44:00.775Z,20.65
2022-10-17T18:46:27.395Z,20.67
2022-10-17T18:48:54.011Z,20.67
2022-10-17T18:51:20.607Z,20.61
2022-10-17T18:53:47.251Z,20.65
2022-10-17T18:56:13.855Z,20.58
2022-10-17T18:58:40.521Z,20.62
2022-10-17T19:01:07.228Z,20.53
2022-10-17T19:03:33.854Z,20.44
2022-10-17T19:06:01.197Z,20.34
2022-10-17T19:08:27.885Z,20.34
2022-10-17T19:10:54.528Z,20.30
2022-10-17T19:13:21.738Z,20.27
2022-10-17T19:15:48.534Z,20.22
2022-10-17T19:18:15.130Z,20.22
2022-10-17T19:20:41.785Z,20.21
2022-10-17T19:23:08.389Z,20.01
2022-10-17T19:25:35.009Z,20.05
2022-10-17T19:28:01.620Z,20.10
2022-10-17T19:30:28.248Z,20.07
2022-10-17T19:32:54.888Z,20.08
2022-10-17T19:35:21.479Z,19.94
2022-10-17T19:37:48.088Z,19.95
2022-10-17T19:40:14.709Z,19.93
2022-10-17T19:42:41.313Z,19.83
2022-10-17T19:45:08.304Z,19.93
2022-10-17T19:47:35.004Z,19.68
2022-10-17T19:50:01.604Z,19.59
2022-10-17T19:52:28.563Z,19.57
2022-10-17T19:54:55.377Z,19.59
2022-10-17T19:57:21.962Z,19.68
2022-10-17T19:59:50.290Z,19.70
2022-10-17T20:02:19.074Z,19.61
2022-10-17T20:04:54.565Z,19.56
2022-10-17T20:07:32.287Z,19.60
2022-10-17T20:09:58.889Z,19.37
2022-10-17T20:12:25.511Z,19.13
2022-10-17T20:14:52.127Z,19.22
2022-10-17T20:17:18.722Z,19.20
2022-10-17T20:19:45.349Z,19.20
2022-10-17T20:22:11.948Z,19.25
2022-10-17T20:24:38.553Z,19.27
2022-10-17T20:27:05.156Z,19.30
2022-10-17T20:29:31.775Z,19.26
2022-10-17T20:31:58.422Z,19.26
2022-10-17T20:34:25.032Z,19.27
2022-10-17T20:36:51.659Z,19.23
2022-10-17T20:39:18.315Z,19.22
2022-10-17T20:41:44.896Z,19.10
2022-10-17T20:44:11.523Z,19.00
2022-10-17T20:46:44.428Z,19.01
2022-10-17T20:49:11.757Z,19.06
2022-10-17T20:51:38.343Z,19.04
2022-10-17T20:54:04.950Z,19.00
2022-10-17T20:56:31.545Z,18.94
2022-10-17T20:58:58.166Z,18.85
2022-10-17T21:01:24.784Z,18.79
2022-10-17T21:03:51.433Z,18.72
2022-10-17T21:06:18.061Z,18.73
2022-10-17T21:08:44.680Z,18.67
2022-10-17T21:11:11.289Z,18.59
2022-10-17T21:13:37.881Z,18.59
2022-10-17T21:16:04.530Z,18.56
2022-10-17T21:18:31.178Z,18.63
2022-10-17T21:20:57.841Z,18.61
2022-10-17T21:23:24.522Z,18.50
2022-10-17T21:25:51.130Z,18.50
2022-10-17T21:28:17.720Z,18.50
2022-10-17T21:30:44.338Z,18.54
2022-10-17T21:33:10.962Z,18.53
2022-10-17T21:35:37.574Z,18.51
2022-10-17T21:38:04.215Z,18.44
2022-10-17T21:40:30.828Z,18.37
2022-10-17T21:42:57.450Z,18.34
2022-10-17T21:45:25.789Z,18.26
2022-10-17T21:48:11.723Z,18.26
2022-10-17T21:50:39.385Z,18.30
2022-10-17T21:53:06.081Z,18.31
2022-10-17T21:55:32.711Z,18.33
2022-10-17T21:57:59.330Z,18.23
2022-10-17T22:00:25.912Z,18.22
2022-10-17T22:02:52.526Z,18.15
2022-10-17T22:05:19.120Z,18.24
2022-10-17T22:07:45.758Z,18.27
2022-10-17T22:10:12.343Z,18.22
2022-10-17T22:12:38.969Z,18.14
2022-10-17T22:15:05.837Z,18.03
2022-10-17T22:17:32.648Z,18.06
2022-10-17T22:19:59.484Z,18.03
2022-10-17T22:22:26.087Z,18.08
2022-10-17T22:24:52.682Z,18.11
2022-10-17T22:27:19.300Z,18.05
2022-10-17T22:29:45.903Z,17.89
2022-10-17T22:32:12.552Z,17.71
2022-10-17T22:34:39.169Z,17.74
2022-10-17T22:37:05.787Z,17.80
2022-10-17T22:39:32.372Z,17.72
2022-10-17T22:41:59.004Z,17.70
2022-10-17T22:44:25.599Z,17.75
2022-10-17T22:46:52.255Z,17.83
2022-10-17T22:49:18.908Z,17.76
2022-10-17T22:51:45.499Z,17.57
2022-10-17T22:54:12.129Z,17.54
2022-10-17T22:56:38.754Z,17.58
2022-10-17T22:59:05.367Z,17.66
2022-10-17T23:01:31.989Z,17.68
2022-10-17T23:03:58.647Z,17.59
2022-10-17T23:06:25.232Z,17.46
2022-10-17T23:08:51.875Z,17.54
2022-10-17T23:11:18.494Z,17.53
2022-10-17T23:13:45.105Z,17.65
2022-10-17T23:16:11.715Z,17.32
2022-10-17T23:18:38.313Z,17.26
2022-10-17T23:21:04.938Z,17.33
2022-10-17T23:23:31.535Z,17.26
2022-10-17T23:25:58.158Z,17.17
2022-10-17T23:28:24.820Z,17.07
2022-10-17T23:30:51.455Z,16.95
2022-10-17T23:33:18.082Z,16.89
2022-10-17T23:35:44.683Z,16.96
2022-10-17T23:38:11.287Z,17.09
2022-10-17T23:40:37.907Z,17.12
2022-10-17T23:43:04.503Z,17.24
2022-10-17T23:45:35.969Z,17.27
2022-10-17T23:48:03.608Z,17.17
2022-10-17T23:50:30.268Z,17.14
2022-10-17T23:52:56.849Z,17.21
2022-10-17T23:55:23.428Z,17.26
2022-10-17T23:57:50.062Z,17.26
